createdAt,value
2023-02-13T00:00:48.352Z,39.50
2023-02-13T00:03:17.590Z,35.60
2023-02-13T00:05:45.695Z,36.97
2023-02-13T00:08:13.562Z,39.00
2023-02-13T00:10:41.481Z,39.67
2023-02-13T00:13:09.368Z,40.43
2023-02-13T00:15:37.286Z,36.53
2023-02-13T00:18:05.710Z,35.47
2023-02-13T00:20:34.953Z,38.53
2023-02-13T00:23:03.046Z,38.43
2023-02-13T00:25:30.957Z,41.10
2023-02-13T00:27:58.829Z,42.37
2023-02-13T00:30:26.742Z,40.03
2023-02-13T00:32:54.556Z,41.83
2023-02-13T00:35:25.193Z,36.00
2023-02-13T00:37:55.122Z,43.10
2023-02-13T00:40:25.676Z,38.07
2023-02-13T00:42:53.615Z,42.40
2023-02-13T00:45:21.482Z,39.43
2023-02-13T00:47:49.384Z,40.23
2023-02-13T00:50:17.429Z,41.27
2023-02-13T00:52:45.438Z,44.07
2023-02-13T00:55:15.344Z,39.63
2023-02-13T00:57:43.509Z,40.53
2023-02-13T01:00:14.148Z,42.43
2023-02-13T01:02:42.821Z,41.43
2023-02-13T01:05:10.659Z,43.07
2023-02-13T01:07:38.556Z,39.70
2023-02-13T01:10:08.093Z,37.17
2023-02-13T01:12:37.373Z,40.10
2023-02-13T01:15:08.664Z,35.63
2023-02-13T01:17:36.536Z,38.13
2023-02-13T01:20:04.518Z,35.57
2023-02-13T01:22:32.433Z,36.93
2023-02-13T01:25:00.241Z,37.67
2023-02-13T01:27:32.386Z,33.70
2023-02-13T01:30:01.703Z,40.60
2023-02-13T01:32:30.773Z,35.60
2023-02-13T01:34:58.675Z,33.67
2023-02-13T01:37:26.546Z,36.23
2023-02-13T01:39:56.288Z,36.00
2023-02-13T01:42:27.590Z,34.87
2023-02-13T01:44:57.152Z,34.73
2023-02-13T01:47:30.448Z,36.77
2023-02-13T01:50:07.123Z,37.10
2023-02-13T01:52:36.871Z,32.80
2023-02-13T01:55:06.026Z,38.93
2023-02-13T01:57:35.151Z,40.17
2023-02-13T02:00:07.495Z,38.43
2023-02-13T02:02:51.631Z,42.53
2023-02-13T02:05:25.088Z,36.07
2023-02-13T02:07:54.106Z,39.93
2023-02-13T02:10:24.764Z,39.27
2023-02-13T02:12:59.604Z,38.50
2023-02-13T02:15:29.660Z,38.93
2023-02-13T02:17:58.939Z,39.30
2023-02-13T02:20:38.887Z,41.20
2023-02-13T02:23:53.654Z,36.50
2023-02-13T02:26:49.492Z,39.77
2023-02-13T02:29:44.040Z,40.23
2023-02-13T02:32:36.254Z,36.77
2023-02-13T02:35:18.999Z,41.47
2023-02-13T02:38:00.238Z,42.63
2023-02-13T02:40:37.929Z,40.60
2023-02-13T02:43:22.889Z,43.37
2023-02-13T02:45:57.576Z,40.30
2023-02-13T02:48:50.418Z,41.00
2023-02-13T02:51:25.632Z,38.23
2023-02-13T02:54:24.404Z,37.43
2023-02-13T02:56:55.396Z,42.13
2023-02-13T02:59:46.653Z,39.47
2023-02-13T03:02:33.577Z,38.20
2023-02-13T03:05:22.153Z,39.10
2023-02-13T03:07:50.330Z,43.17
2023-02-13T03:10:46.009Z,43.80
2023-02-13T03:13:21.758Z,45.43
2023-02-13T03:16:09.225Z,45.20
2023-02-13T03:18:57.554Z,42.03
2023-02-13T03:21:48.804Z,41.67
2023-02-13T03:24:26.931Z,41.27
2023-02-13T03:27:02.070Z,42.83
2023-02-13T03:30:01.104Z,45.40
2023-02-13T03:32:37.030Z,38.07
2023-02-13T03:35:34.314Z,43.57
2023-02-13T03:38:11.644Z,41.80
2023-02-13T03:41:02.317Z,39.33
2023-02-13T03:43:33.772Z,42.23
2023-02-13T03:46:03.721Z,40.07
2023-02-13T03:48:52.806Z,39.73
2023-02-13T03:51:27.483Z,45.27
2023-02-13T03:54:00.583Z,42.00
2023-02-13T03:56:50.853Z,37.57
2023-02-13T03:59:23.403Z,35.77
2023-02-13T04:01:57.591Z,35.90
2023-02-13T04:04:32.568Z,39.57
2023-02-13T04:07:03.880Z,35.77
2023-02-13T04:09:35.730Z,32.87
2023-02-13T04:12:10.821Z,29.37
2023-02-13T04:14:44.063Z,29.90
2023-02-13T04:17:17.817Z,28.70
2023-02-13T04:19:45.897Z,28.60
2023-02-13T04:22:14.073Z,26.80
2023-02-13T04:24:43.344Z,28.43
2023-02-13T04:27:13.958Z,24.53
2023-02-13T04:29:42.009Z,24.87
2023-02-13T04:32:11.739Z,23.83
2023-02-13T04:34:39.905Z,21.47
2023-02-13T04:37:07.771Z,23.27
2023-02-13T04:39:35.743Z,20.13
2023-02-13T04:42:05.148Z,19.80
2023-02-13T04:44:33.036Z,18.00
2023-02-13T04:47:00.965Z,17.43
2023-02-13T04:49:28.851Z,17.33
2023-02-13T04:51:56.671Z,15.10
2023-02-13T04:54:24.557Z,15.93
2023-02-13T04:56:52.373Z,15.53
2023-02-13T04:59:21.618Z,14.93
2023-02-13T05:01:49.526Z,14.33
2023-02-13T05:04:17.582Z,12.13
2023-02-13T05:06:46.335Z,12.93
2023-02-13T05:09:14.215Z,13.90
2023-02-13T05:11:42.089Z,14.40
2023-02-13T05:14:11.186Z,10.17
2023-02-13T05:16:40.389Z,13.77
2023-02-13T05:19:08.284Z,10.47
2023-02-13T05:21:53.773Z,9.40
2023-02-13T05:24:21.664Z,11.27
2023-02-13T05:26:49.557Z,10.13
2023-02-13T05:29:20.445Z,9.30
2023-02-13T05:31:51.108Z,10.43
2023-02-13T05:34:19.208Z,12.57
2023-02-13T05:36:47.024Z,10.03
2023-02-13T05:39:15.192Z,10.13
2023-02-13T05:41:43.690Z,9.63
2023-02-13T05:44:12.190Z,13.73
2023-02-13T05:46:41.656Z,10.37
2023-02-13T05:49:13.030Z,10.70
2023-02-13T05:51:40.970Z,10.80
2023-02-13T05:54:09.210Z,11.33
2023-02-13T05:56:37.071Z,12.70
2023-02-13T05:59:05.071Z,12.00
2023-02-13T06:01:33.078Z,13.17
2023-02-13T06:04:03.676Z,9.57
2023-02-13T06:06:33.205Z,12.47
2023-02-13T06:09:01.065Z,11.73
2023-02-13T06:11:29.174Z,12.73
2023-02-13T06:13:57.076Z,13.70
2023-02-13T06:16:25.076Z,11.47
2023-02-13T06:18:52.930Z,11.77
2023-02-13T06:21:22.504Z,11.40
2023-02-13T06:23:52.186Z,10.90
2023-02-13T06:26:20.208Z,13.77
2023-02-13T06:28:48.020Z,11.43
2023-02-13T06:31:15.976Z,12.57
2023-02-13T06:33:43.887Z,12.63
2023-02-13T06:36:11.748Z,12.60
2023-02-13T06:38:39.600Z,16.03
2023-02-13T06:41:09.306Z,13.50
2023-02-13T06:43:39.825Z,13.27
2023-02-13T06:46:09.039Z,12.77
2023-02-13T06:48:37.363Z,13.07
2023-02-13T06:51:05.731Z,13.90
2023-02-13T06:53:33.809Z,16.37
2023-02-13T06:56:06.096Z,16.03
2023-02-13T06:58:35.666Z,17.03
2023-02-13T07:01:03.652Z,16.07
2023-02-13T07:03:31.492Z,15.70
2023-02-13T07:05:59.403Z,15.70
2023-02-13T07:08:27.394Z,16.17
2023-02-13T07:10:55.755Z,16.03
2023-02-13T07:13:23.718Z,16.97
2023-02-13T07:15:53.073Z,15.97
2023-02-13T07:18:20.874Z,16.03
2023-02-13T07:20:48.764Z,16.73
2023-02-13T07:23:16.626Z,17.40
2023-02-13T07:25:44.502Z,18.17
2023-02-13T07:28:13.342Z,17.00
2023-02-13T07:30:41.291Z,18.17
2023-02-13T07:33:12.741Z,17.93
2023-02-13T07:35:46.823Z,17.63
2023-02-13T07:38:14.787Z,17.27
2023-02-13T07:40:42.613Z,16.30
2023-02-13T07:43:10.714Z,18.00
2023-02-13T07:45:38.492Z,15.83
2023-02-13T07:48:06.618Z,16.77
2023-02-13T07:50:35.787Z,18.13
2023-02-13T07:53:04.021Z,18.00
2023-02-13T07:55:32.606Z,19.33
2023-02-13T07:58:01.730Z,18.77
2023-02-13T08:00:29.558Z,22.70
2023-02-13T08:03:00.282Z,24.40
2023-02-13T08:05:28.674Z,23.03
2023-02-13T08:07:57.960Z,21.70
2023-02-13T08:10:44.198Z,23.00
2023-02-13T08:13:15.038Z,23.47
2023-02-13T08:15:44.382Z,24.83
2023-02-13T08:18:12.295Z,25.77
2023-02-13T08:20:40.340Z,28.40
2023-02-13T08:23:12.130Z,36.90
2023-02-13T08:25:40.518Z,27.60
2023-02-13T08:28:08.517Z,24.30
2023-02-13T08:30:36.422Z,25.83
2023-02-13T08:33:04.311Z,24.40
2023-02-13T08:35:32.194Z,29.30
2023-02-13T08:38:03.757Z,26.40
2023-02-13T08:40:33.354Z,24.83
2023-02-13T08:43:02.187Z,29.23
2023-02-13T08:45:30.655Z,23.00
2023-02-13T08:47:59.222Z,21.60
2023-02-13T08:50:28.662Z,20.07
2023-02-13T08:52:56.793Z,20.90
2023-02-13T08:55:24.580Z,20.23
2023-02-13T08:57:53.778Z,19.93
2023-02-13T09:00:22.505Z,22.10
2023-02-13T09:02:50.467Z,21.73
2023-02-13T09:05:18.352Z,19.27
2023-02-13T09:07:46.305Z,21.37
2023-02-13T09:10:14.160Z,21.13
2023-02-13T09:12:42.100Z,19.77
2023-02-13T09:15:11.923Z,17.77
2023-02-13T09:17:39.939Z,19.17
2023-02-13T09:20:08.746Z,18.27
2023-02-13T09:22:36.739Z,21.13
2023-02-13T09:25:04.837Z,21.70
2023-02-13T09:27:33.531Z,19.37
2023-02-13T09:30:01.453Z,21.73
2023-02-13T09:32:31.659Z,21.80
2023-02-13T09:35:00.413Z,20.07
2023-02-13T09:37:28.512Z,21.60
2023-02-13T09:39:56.453Z,20.60
2023-02-13T09:42:28.736Z,21.23
2023-02-13T09:45:00.492Z,20.73
2023-02-13T09:47:32.924Z,19.83
2023-02-13T09:50:04.824Z,21.77
2023-02-13T09:52:36.346Z,22.57
2023-02-13T09:55:07.880Z,19.70
2023-02-13T09:57:43.084Z,20.07
2023-02-13T10:00:16.268Z,20.30
2023-02-13T10:03:14.291Z,20.50
2023-02-13T10:05:54.307Z,21.47
2023-02-13T10:08:33.890Z,19.87
2023-02-13T10:11:14.601Z,20.97
2023-02-13T10:14:06.379Z,19.27
2023-02-13T10:16:39.028Z,22.57
2023-02-13T10:19:17.110Z,21.77
2023-02-13T10:21:50.830Z,23.70
2023-02-13T10:24:28.371Z,21.47
2023-02-13T10:26:58.727Z,22.20
2023-02-13T10:29:55.521Z,20.47
2023-02-13T10:32:30.294Z,22.60
2023-02-13T10:35:03.284Z,21.87
2023-02-13T10:37:31.646Z,20.67
2023-02-13T10:39:59.465Z,23.73
2023-02-13T10:42:39.299Z,21.23
2023-02-13T10:45:24.098Z,22.37
2023-02-13T10:48:07.994Z,21.80
2023-02-13T10:50:44.120Z,19.27
2023-02-13T10:53:20.877Z,23.17
2023-02-13T10:56:01.767Z,24.37
2023-02-13T10:58:49.750Z,23.17
2023-02-13T11:01:25.023Z,23.07
2023-02-13T11:04:06.456Z,22.40
2023-02-13T11:06:37.725Z,21.10
2023-02-13T11:09:08.409Z,21.23
2023-02-13T11:11:38.034Z,21.17
2023-02-13T11:14:12.563Z,21.50
2023-02-13T11:16:59.256Z,19.43
2023-02-13T11:19:33.240Z,23.17
2023-02-13T11:22:05.608Z,21.40
2023-02-13T11:24:33.759Z,21.50
2023-02-13T11:27:08.634Z,23.07
2023-02-13T11:29:38.106Z,23.10
2023-02-13T11:32:18.728Z,20.13
2023-02-13T11:34:47.823Z,19.63
2023-02-13T11:37:21.712Z,22.27
2023-02-13T11:39:51.748Z,21.70
2023-02-13T11:42:30.137Z,19.60
2023-02-13T11:45:02.234Z,20.87
2023-02-13T11:47:39.852Z,18.60
2023-02-13T11:50:24.771Z,21.77
2023-02-13T11:52:58.485Z,22.20
2023-02-13T11:55:31.789Z,20.13
2023-02-13T11:58:01.626Z,20.10
2023-02-13T12:00:37.649Z,21.43
2023-02-13T12:03:27.151Z,19.83
2023-02-13T12:06:03.962Z,20.17
2023-02-13T12:08:35.437Z,20.80
2023-02-13T12:11:09.556Z,22.50
2023-02-13T12:13:39.870Z,23.13
2023-02-13T12:16:15.243Z,24.27
2023-02-13T12:18:45.831Z,24.97
2023-02-13T12:21:26.945Z,24.37
2023-02-13T12:24:02.822Z,22.90
2023-02-13T12:26:36.248Z,23.57
2023-02-13T12:29:33.634Z,22.73
2023-02-13T12:32:16.449Z,23.17
2023-02-13T12:35:04.872Z,22.10
2023-02-13T12:38:00.009Z,25.13
2023-02-13T12:40:46.668Z,26.30
2023-02-13T12:43:29.314Z,26.20
2023-02-13T12:46:03.664Z,25.90
2023-02-13T12:48:40.133Z,24.20
2023-02-13T12:51:25.253Z,24.77
2023-02-13T12:54:03.951Z,25.33
2023-02-13T12:56:46.627Z,26.23
2023-02-13T12:59:24.292Z,27.67
2023-02-13T13:02:15.452Z,25.37
2023-02-13T13:04:54.100Z,26.03
2023-02-13T13:07:41.312Z,26.83
2023-02-13T13:10:32.754Z,26.67
2023-02-13T13:13:12.018Z,29.30
2023-02-13T13:15:47.265Z,29.80
2023-02-13T13:18:28.767Z,29.03
2023-02-13T13:21:02.943Z,28.17
2023-02-13T13:23:36.858Z,32.57
2023-02-13T13:26:16.720Z,30.50
2023-02-13T13:28:49.813Z,30.07
2023-02-13T13:31:18.148Z,32.33
2023-02-13T13:33:48.106Z,30.43
2023-02-13T13:36:24.843Z,32.20
2023-02-13T13:39:03.765Z,31.60
2023-02-13T13:41:39.653Z,32.03
2023-02-13T13:44:36.600Z,29.07
2023-02-13T13:47:10.264Z,29.83
2023-02-13T13:49:45.917Z,29.67
2023-02-13T13:52:23.223Z,38.53
2023-02-13T13:54:53.469Z,30.00
2023-02-13T13:57:22.381Z,30.90
2023-02-13T14:00:23.326Z,32.77
2023-02-13T14:02:53.120Z,30.87
2023-02-13T14:05:30.125Z,33.23
2023-02-13T14:07:59.522Z,36.20
2023-02-13T14:11:07.249Z,36.80
2023-02-13T14:13:37.800Z,34.80
2023-02-13T14:16:10.844Z,33.60
2023-02-13T14:18:44.377Z,33.07
2023-02-13T14:21:13.091Z,33.60
2023-02-13T14:23:53.095Z,34.17
2023-02-13T14:26:39.593Z,30.40
2023-02-13T14:29:28.155Z,33.20
2023-02-13T14:32:03.606Z,33.83
2023-02-13T14:34:36.328Z,33.77
2023-02-13T14:37:20.532Z,34.87
2023-02-13T14:40:28.310Z,32.90
2023-02-13T14:42:59.551Z,33.23
2023-02-13T14:45:32.252Z,33.30
2023-02-13T14:48:07.262Z,29.37
2023-02-13T14:50:45.742Z,31.30
2023-02-13T14:53:22.514Z,34.33
2023-02-13T14:55:57.650Z,30.23
2023-02-13T14:58:29.928Z,30.07
2023-02-13T15:01:03.541Z,33.40
2023-02-13T15:03:39.074Z,30.30
2023-02-13T15:06:25.065Z,28.83
2023-02-13T15:08:54.666Z,30.73
2023-02-13T15:11:44.033Z,30.83
2023-02-13T15:14:23.730Z,28.37
2023-02-13T15:16:56.052Z,25.70
2023-02-13T15:19:26.677Z,29.00
2023-02-13T15:21:58.531Z,29.17
2023-02-13T15:24:27.265Z,32.73
2023-02-13T15:27:01.968Z,33.27
2023-02-13T15:29:44.207Z,31.53
2023-02-13T15:32:20.100Z,30.67
2023-02-13T15:34:49.941Z,32.20
2023-02-13T15:37:22.585Z,29.03
2023-02-13T15:39:50.463Z,31.17
2023-02-13T15:42:18.323Z,30.77
2023-02-13T15:44:48.699Z,37.53
2023-02-13T15:47:21.948Z,31.90
2023-02-13T15:49:51.651Z,32.63
2023-02-13T15:52:23.856Z,29.87
2023-02-13T15:54:54.782Z,32.00
2023-02-13T15:57:24.322Z,31.60
2023-02-13T15:59:53.981Z,33.27
2023-02-13T16:02:24.787Z,32.80
2023-02-13T16:04:56.547Z,34.97
2023-02-13T16:07:24.502Z,31.03
2023-02-13T16:09:52.593Z,35.20
2023-02-13T16:12:23.923Z,36.40
2023-02-13T16:14:55.367Z,29.67
2023-02-13T16:17:29.837Z,31.67
2023-02-13T16:20:02.765Z,32.50
2023-02-13T16:22:34.379Z,34.13
2023-02-13T16:25:14.928Z,30.13
2023-02-13T16:27:46.002Z,31.60
2023-02-13T16:30:34.990Z,34.87
2023-02-13T16:33:21.673Z,33.13
2023-02-13T16:35:54.927Z,29.13
2023-02-13T16:38:32.145Z,29.90
2023-02-13T16:41:02.208Z,33.27
2023-02-13T16:43:38.641Z,30.73
2023-02-13T16:46:31.685Z,33.63
2023-02-13T16:49:22.612Z,33.40
2023-02-13T16:51:58.344Z,36.17
2023-02-13T16:54:30.216Z,35.27
2023-02-13T16:57:00.109Z,31.57
2023-02-13T16:59:32.134Z,31.87
2023-02-13T17:02:18.977Z,31.07
2023-02-13T17:04:49.859Z,31.47
2023-02-13T17:07:22.941Z,30.73
2023-02-13T17:09:54.870Z,33.10
2023-02-13T17:12:23.871Z,29.00
2023-02-13T17:14:52.224Z,30.00
2023-02-13T17:17:22.732Z,33.33
2023-02-13T17:19:51.324Z,29.40
2023-02-13T17:22:26.040Z,30.80
2023-02-13T17:24:53.905Z,31.57
2023-02-13T17:27:22.839Z,32.80
2023-02-13T17:29:50.838Z,30.93
2023-02-13T17:32:20.506Z,35.60
2023-02-13T17:34:48.457Z,35.07
2023-02-13T17:37:23.551Z,35.70
2023-02-13T17:39:52.388Z,31.40
2023-02-13T17:42:24.287Z,31.63
2023-02-13T17:44:52.725Z,32.93
2023-02-13T17:47:21.497Z,33.30
2023-02-13T17:49:49.886Z,31.77
2023-02-13T17:52:21.874Z,32.87
2023-02-13T17:54:50.176Z,32.23
2023-02-13T17:57:19.392Z,29.80
2023-02-13T17:59:48.372Z,30.53
2023-02-13T18:02:18.072Z,32.27
2023-02-13T18:04:46.627Z,29.53
2023-02-13T18:07:16.410Z,31.67
2023-02-13T18:09:46.022Z,32.00
2023-02-13T18:12:15.861Z,32.70
2023-02-13T18:14:44.085Z,35.03
2023-02-13T18:17:12.407Z,33.53
2023-02-13T18:19:40.869Z,33.47
2023-02-13T18:22:10.098Z,34.80
2023-02-13T18:24:40.597Z,37.20
2023-02-13T18:27:11.238Z,32.20
2023-02-13T18:29:39.625Z,32.30
2023-02-13T18:32:10.334Z,34.27
2023-02-13T18:34:39.419Z,31.20
2023-02-13T18:37:08.094Z,28.30
2023-02-13T18:39:36.387Z,31.70
2023-02-13T18:42:04.471Z,35.83
2023-02-13T18:44:33.672Z,33.30
2023-02-13T18:47:01.627Z,34.33
2023-02-13T18:49:29.582Z,33.33
2023-02-13T18:51:57.788Z,34.00
2023-02-13T18:54:25.774Z,34.67
2023-02-13T18:56:53.732Z,33.27
2023-02-13T18:59:22.914Z,30.07
2023-02-13T19:01:52.195Z,35.70
2023-02-13T19:04:20.099Z,32.97
2023-02-13T19:06:47.978Z,32.57
2023-02-13T19:09:15.913Z,32.83
2023-02-13T19:11:44.379Z,30.63
2023-02-13T19:14:14.875Z,31.33
2023-02-13T19:16:43.065Z,33.50
2023-02-13T19:19:12.545Z,34.20
2023-02-13T19:21:41.166Z,33.87
2023-02-13T19:24:10.387Z,34.70
2023-02-13T19:26:38.726Z,36.50
2023-02-13T19:29:06.574Z,35.40
2023-02-13T19:31:35.370Z,34.10
2023-02-13T19:34:05.583Z,36.87
2023-02-13T19:36:34.882Z,32.10
2023-02-13T19:39:04.993Z,35.07
2023-02-13T19:41:33.735Z,35.50
2023-02-13T19:44:01.730Z,36.97
2023-02-13T19:46:31.714Z,33.93
2023-02-13T19:49:00.503Z,38.13
2023-02-13T19:51:30.098Z,39.90
2023-02-13T19:54:00.663Z,35.37
2023-02-13T19:56:29.705Z,36.60
2023-02-13T19:58:58.167Z,37.13
2023-02-13T20:01:28.736Z,37.77
2023-02-13T20:03:56.717Z,36.57
2023-02-13T20:06:27.694Z,37.37
2023-02-13T20:08:58.444Z,33.63
2023-02-13T20:11:27.928Z,34.67
2023-02-13T20:13:57.000Z,34.33
2023-02-13T20:16:25.198Z,36.83
2023-02-13T20:18:53.775Z,31.80
2023-02-13T20:21:22.045Z,33.53
2023-02-13T20:23:52.302Z,31.80
2023-02-13T20:26:20.443Z,33.23
2023-02-13T20:28:49.589Z,30.73
2023-02-13T20:31:19.431Z,34.97
2023-02-13T20:33:48.087Z,38.97
2023-02-13T20:36:17.855Z,37.23
2023-02-13T20:38:46.097Z,36.70
2023-02-13T20:41:16.163Z,35.40
2023-02-13T20:43:44.498Z,39.60
2023-02-13T20:46:15.879Z,39.17
2023-02-13T20:48:45.661Z,41.10
2023-02-13T20:51:15.597Z,39.67
2023-02-13T20:53:44.335Z,34.07
2023-02-13T20:56:13.745Z,39.57
2023-02-13T20:58:42.975Z,42.43
2023-02-13T21:01:16.576Z,40.60
2023-02-13T21:03:47.797Z,37.73
2023-02-13T21:06:15.702Z,39.67
2023-02-13T21:08:44.453Z,41.53
2023-02-13T21:11:12.374Z,39.37
2023-02-13T21:13:40.289Z,35.13
2023-02-13T21:16:10.259Z,32.37
2023-02-13T21:18:40.368Z,34.63
2023-02-13T21:21:09.781Z,37.43
2023-02-13T21:23:38.255Z,40.83
2023-02-13T21:26:08.037Z,40.43
2023-02-13T21:28:38.376Z,37.97
2023-02-13T21:31:07.400Z,38.07
2023-02-13T21:33:35.343Z,38.97
2023-02-13T21:36:07.404Z,35.97
2023-02-13T21:38:36.351Z,36.23
2023-02-13T21:41:07.999Z,34.63
2023-02-13T21:43:37.854Z,35.17
2023-02-13T21:46:08.386Z,37.10
2023-02-13T21:48:36.288Z,36.13
2023-02-13T21:51:08.231Z,36.47
2023-02-13T21:53:36.188Z,34.37
2023-02-13T21:56:04.606Z,45.83
2023-02-13T21:58:33.755Z,39.93
2023-02-13T22:01:02.299Z,39.10
2023-02-13T22:03:30.319Z,34.10
2023-02-13T22:05:58.134Z,37.40
2023-02-13T22:08:27.399Z,38.13
2023-02-13T22:10:56.941Z,37.03
2023-02-13T22:13:25.460Z,38.07
2023-02-13T22:16:00.712Z,38.93
2023-02-13T22:18:28.954Z,39.97
2023-02-13T22:20:57.004Z,35.83
2023-02-13T22:23:25.337Z,37.67
2023-02-13T22:25:54.493Z,36.57
2023-02-13T22:28:22.392Z,39.60
2023-02-13T22:30:50.271Z,37.43
2023-02-13T22:33:18.260Z,35.93
2023-02-13T22:35:46.656Z,36.63
2023-02-13T22:38:14.616Z,38.67
2023-02-13T22:40:42.512Z,36.13
2023-02-13T22:43:11.925Z,35.30
2023-02-13T22:45:39.948Z,31.10
2023-02-13T22:48:08.159Z,33.20
2023-02-13T22:50:36.321Z,37.03
2023-02-13T22:53:04.756Z,37.80
2023-02-13T22:55:33.574Z,35.73
2023-02-13T22:58:01.360Z,33.27
2023-02-13T23:00:30.635Z,30.63
2023-02-13T23:02:58.486Z,35.70
2023-02-13T23:05:26.341Z,37.67
2023-02-13T23:07:54.139Z,34.80
2023-02-13T23:10:25.749Z,32.40
2023-02-13T23:12:52.748Z,33.40
2023-02-13T23:15:21.024Z,33.87
2023-02-13T23:18:07.986Z,36.37
2023-02-13T23:20:35.932Z,34.80
2023-02-13T23:23:04.918Z,39.13
2023-02-13T23:25:32.982Z,35.77
2023-02-13T23:28:00.787Z,39.90
2023-02-13T23:30:30.038Z,37.77
2023-02-13T23:33:00.326Z,34.13
2023-02-13T23:35:28.594Z,32.77
2023-02-13T23:37:56.383Z,38.97
2023-02-13T23:40:24.297Z,36.57
2023-02-13T23:42:52.127Z,32.47
2023-02-13T23:45:20.317Z,35.83
2023-02-13T23:47:48.192Z,34.80
2023-02-13T23:50:17.614Z,35.57
2023-02-13T23:52:45.489Z,34.70
2023-02-13T23:55:13.407Z,35.57
2023-02-13T23:57:41.829Z,36.00
